world map with TOE marked

TOE - Airport

This information may not be accurate or current and is not valid for navigation or flight planning. No warranty of fitness for any purpose is made or implied.

flag of Tunisia

Donate via PayPal

Additional information is available on the NEW Great Circle Mapper

Location
City:  Tozeur, Tunisia
Name:Nefta International Airport
ICAO / IATA:DTTZ / TOE

Details
Type:Airport (Aerodrome, Airfield)
Use:Public/Civil
Latitude:33°56'23"N (33.939722)
Longitude:8°06'38"E (8.110556)
Elevation:287 ft (87 m)
Runways:1
Longest:10581 × 148 ft (3225 × 45 m)

Time
Timezone:UTC+1 (DST+2)

Weather
METAR:DTTZ  161400Z 04011KT 9999 SCT033 24/13 Q1012 NOSIG
TAF:DTTZ  161100Z 1612/1712 05010G25KT 8000 SCT033

Related Locations
Nearby:
Farthest:NZJP: 11823 mi / 19027 km
Te Puia Springs [Hospital Heliport], GIS, NZ

Find:

   beyond  
but within

Other Information
Maps:
Sources:

  


 


Great Circle Mapper   Great Circle Mapper
Great Circle Mapper FAQ   Great Circle Mapper FAQ
  Karl's Home Page
KLSē   KLSē Home
   GC on Facebook
Airlines of the World   Airlines of the World
Donate via PayPal


Copyright © 2004-2018, Karl L. Swartz. All rights reserved.
All trademarks mentioned herein belong to their respective owners.

Please see credits for attribution and copyright information.

Karl Swartz <karl@kls2.com>
  Powered by FreeBSD
Valid HTML 4.01!
Labeled with ICRA
hCard Microformat
Geo Microformat